createdAt,value
2019-03-15T00:04:11.969Z,0.77
2019-03-15T00:09:14.000Z,0.67
2019-03-15T00:14:16.104Z,1.10
2019-03-15T00:19:18.213Z,1.30
2019-03-15T00:24:20.399Z,0.90
2019-03-15T00:29:22.584Z,1.50
2019-03-15T00:34:24.692Z,0.80
2019-03-15T00:39:29.797Z,0.80
2019-03-15T00:44:31.883Z,1.13
2019-03-15T00:49:33.952Z,1.30
2019-03-15T00:54:36.037Z,1.20
2019-03-15T00:59:38.083Z,1.37
2019-03-15T01:04:40.236Z,1.23
2019-03-15T01:09:42.329Z,1.27
2019-03-15T01:14:44.491Z,1.10
2019-03-15T01:19:48.725Z,1.27
2019-03-15T01:24:50.829Z,1.53
2019-03-15T01:29:53.111Z,1.07
2019-03-15T01:34:55.361Z,1.73
2019-03-15T01:39:57.467Z,0.97
2019-03-15T01:44:59.530Z,1.40
2019-03-15T01:50:01.634Z,1.27
2019-03-15T01:55:03.810Z,1.00
2019-03-15T02:00:07.188Z,1.60
2019-03-15T02:05:09.280Z,1.50
2019-03-15T02:10:11.408Z,1.20
2019-03-15T02:15:13.532Z,1.30
2019-03-15T02:20:15.645Z,1.10
2019-03-15T02:25:17.874Z,1.20
2019-03-15T02:30:19.892Z,1.13
2019-03-15T02:35:22.083Z,1.23
2019-03-15T02:40:24.129Z,1.40
2019-03-15T02:45:26.418Z,1.47
2019-03-15T02:50:29.264Z,1.03
2019-03-15T02:55:31.616Z,1.40
2019-03-15T03:00:35.165Z,1.77
2019-03-15T03:05:37.234Z,1.40
2019-03-15T03:10:40.485Z,1.90
2019-03-15T03:15:42.677Z,1.40
2019-03-15T03:20:44.851Z,2.33
2019-03-15T03:25:46.984Z,1.80
2019-03-15T03:30:49.089Z,2.20
2019-03-15T03:35:51.220Z,2.70
2019-03-15T03:40:53.260Z,2.50
2019-03-15T03:45:55.302Z,2.03
2019-03-15T03:51:00.020Z,2.00
2019-03-15T03:56:01.460Z,2.07
2019-03-15T04:01:03.584Z,2.00
2019-03-15T04:06:06.767Z,2.50
2019-03-15T04:11:08.900Z,2.17
2019-03-15T04:16:12.890Z,2.20
2019-03-15T04:21:16.905Z,1.50
2019-03-15T04:26:19.001Z,2.67
2019-03-15T04:31:21.125Z,2.30
2019-03-15T04:36:25.083Z,2.80
2019-03-15T04:41:27.224Z,2.13
2019-03-15T04:46:29.455Z,1.70
2019-03-15T04:51:31.562Z,2.20
2019-03-15T04:56:33.666Z,2.13
2019-03-15T05:01:37.676Z,1.80
2019-03-15T05:06:39.837Z,2.10
2019-03-15T05:11:41.913Z,2.10
2019-03-15T05:16:43.978Z,1.77
2019-03-15T05:21:46.110Z,1.60
2019-03-15T05:26:48.198Z,2.07
2019-03-15T05:31:50.179Z,1.73
2019-03-15T05:36:52.227Z,1.70
2019-03-15T05:41:54.387Z,1.90
2019-03-15T05:46:56.451Z,1.57
2019-03-15T05:51:58.527Z,2.13
2019-03-15T05:57:00.714Z,2.00
2019-03-15T06:02:02.855Z,2.53
2019-03-15T06:07:04.903Z,1.83
2019-03-15T06:12:06.940Z,1.90
2019-03-15T06:17:09.114Z,2.23
2019-03-15T06:22:14.094Z,2.40
2019-03-15T06:27:16.159Z,3.27
2019-03-15T06:32:18.215Z,3.37
2019-03-15T06:37:20.355Z,2.40
2019-03-15T06:42:22.462Z,2.63
2019-03-15T06:47:24.632Z,2.50
2019-03-15T06:52:28.751Z,2.83
2019-03-15T06:57:30.799Z,2.37
2019-03-15T07:02:32.850Z,2.53
2019-03-15T07:07:36.100Z,3.00
2019-03-15T07:12:40.100Z,3.27
2019-03-15T07:17:42.180Z,3.87
2019-03-15T07:22:44.255Z,4.00
2019-03-15T07:27:46.360Z,3.67
2019-03-15T07:32:48.468Z,3.13
2019-03-15T07:37:50.626Z,2.47
2019-03-15T07:42:52.711Z,3.20
2019-03-15T07:47:54.745Z,2.80
2019-03-15T07:52:56.794Z,3.00
2019-03-15T07:57:58.845Z,2.63
2019-03-15T08:03:00.928Z,2.73
2019-03-15T08:08:03.232Z,2.50
2019-03-15T08:13:05.331Z,8.20
2019-03-15T08:18:07.410Z,2.90
2019-03-15T08:23:09.490Z,2.93
2019-03-15T08:28:11.679Z,3.40
2019-03-15T08:33:13.741Z,3.30
2019-03-15T08:38:15.829Z,3.70
2019-03-15T08:43:17.886Z,3.10
2019-03-15T08:48:19.958Z,3.23
2019-03-15T08:53:22.041Z,3.30
2019-03-15T08:58:24.104Z,3.17
2019-03-15T09:03:28.312Z,3.47
2019-03-15T09:08:30.155Z,3.23
2019-03-15T09:13:32.218Z,3.27
2019-03-15T09:18:34.353Z,3.27
2019-03-15T09:23:36.586Z,3.00
2019-03-15T09:28:38.912Z,2.80
2019-03-15T09:33:42.008Z,3.53
2019-03-15T09:38:44.169Z,3.67
2019-03-15T09:43:46.261Z,3.27
2019-03-15T09:48:50.691Z,3.17
2019-03-15T09:53:52.783Z,3.17
2019-03-15T09:58:54.880Z,3.43
2019-03-15T10:03:57.048Z,3.50
2019-03-15T10:08:59.157Z,3.37
2019-03-15T10:14:02.337Z,3.13
2019-03-15T10:19:04.629Z,2.93
2019-03-15T10:24:07.139Z,2.80
2019-03-15T10:29:15.482Z,2.63
2019-03-15T10:34:13.345Z,1.90
2019-03-15T10:39:15.431Z,2.23
2019-03-15T10:44:17.510Z,2.00
2019-03-15T10:49:19.713Z,2.40
2019-03-15T10:54:21.643Z,2.30
2019-03-15T10:59:23.726Z,2.77
2019-03-15T11:04:25.932Z,2.23
2019-03-15T11:09:28.274Z,2.00
2019-03-15T11:14:30.318Z,2.10
2019-03-15T11:19:32.383Z,1.40
2019-03-15T11:24:34.462Z,1.43
2019-03-15T11:29:39.135Z,1.20
2019-03-15T11:34:41.227Z,1.50
2019-03-15T11:39:43.400Z,1.23
2019-03-15T11:44:45.374Z,1.53
2019-03-15T11:49:47.475Z,1.07
2019-03-15T11:54:50.001Z,0.83
2019-03-15T11:59:52.160Z,1.50
2019-03-15T12:04:54.236Z,1.23
2019-03-15T12:09:56.361Z,0.90
2019-03-15T12:14:58.588Z,1.20
2019-03-15T12:20:00.661Z,1.10
2019-03-15T12:25:02.942Z,1.10
2019-03-15T12:30:05.181Z,1.20
2019-03-15T12:35:08.759Z,1.40
2019-03-15T12:40:11.201Z,1.13
2019-03-15T12:45:13.293Z,1.47
2019-03-15T12:50:15.397Z,1.70
2019-03-15T12:55:17.490Z,1.33
2019-03-15T13:00:19.713Z,1.10
2019-03-15T13:05:21.723Z,1.33
2019-03-15T13:10:23.780Z,1.30
2019-03-15T13:15:25.812Z,1.40
2019-03-15T13:20:27.935Z,1.30
2019-03-15T13:25:30.120Z,1.00
2019-03-15T13:30:32.273Z,0.90
2019-03-15T13:35:34.324Z,0.67
2019-03-15T13:40:36.421Z,0.80
2019-03-15T13:45:38.466Z,0.90
2019-03-15T13:50:40.505Z,0.63
2019-03-15T13:55:42.601Z,1.00
2019-03-15T14:00:44.694Z,0.80
2019-03-15T14:05:46.739Z,0.60
2019-03-15T14:10:49.881Z,0.63
2019-03-15T14:15:52.210Z,0.60
2019-03-15T14:20:54.306Z,0.60
2019-03-15T14:25:56.422Z,0.50
2019-03-15T14:30:58.483Z,0.60
2019-03-15T14:36:00.812Z,0.40
2019-03-15T14:41:07.511Z,0.50
2019-03-15T14:46:12.067Z,0.70
2019-03-15T14:51:12.733Z,0.70
2019-03-15T14:56:14.715Z,0.90
2019-03-15T15:01:16.792Z,0.70
2019-03-15T15:06:18.928Z,0.80
2019-03-15T15:11:21.032Z,0.93
2019-03-15T15:16:23.089Z,0.60
2019-03-15T15:21:25.111Z,0.90
2019-03-15T15:26:27.206Z,0.80
2019-03-15T15:31:29.227Z,1.13
2019-03-15T15:36:31.294Z,0.80
2019-03-15T15:41:33.382Z,1.10
2019-03-15T15:46:35.436Z,0.73
2019-03-15T15:51:37.552Z,0.90
2019-03-15T15:56:39.610Z,0.80
2019-03-15T16:01:41.677Z,0.90
2019-03-15T16:06:43.827Z,0.73
2019-03-15T16:11:45.974Z,0.90
2019-03-15T16:16:48.046Z,1.17
2019-03-15T16:21:50.120Z,1.00
2019-03-15T16:26:52.218Z,1.33
2019-03-15T16:31:54.284Z,1.03
2019-03-15T16:36:56.339Z,1.10
2019-03-15T16:41:58.802Z,1.50
2019-03-15T16:47:00.910Z,1.50
2019-03-15T16:52:03.067Z,1.13
2019-03-15T16:57:05.131Z,1.03
2019-03-15T17:02:07.214Z,0.97
2019-03-15T17:07:09.255Z,0.90
2019-03-15T17:12:11.302Z,0.90
2019-03-15T17:17:16.100Z,1.23
2019-03-15T17:22:18.211Z,1.10
2019-03-15T17:27:20.304Z,1.80
2019-03-15T17:32:22.491Z,1.40
2019-03-15T17:37:24.580Z,1.57
2019-03-15T17:42:30.479Z,1.00
2019-03-15T17:47:32.733Z,1.07
2019-03-15T17:52:34.904Z,1.00
2019-03-15T17:57:37.027Z,2.47
2019-03-15T18:02:39.143Z,1.33
2019-03-15T18:07:41.222Z,1.53
2019-03-15T18:12:51.359Z,0.90
2019-03-15T18:17:53.564Z,1.03
2019-03-15T18:22:56.989Z,1.20
2019-03-15T18:27:58.915Z,1.20
2019-03-15T18:33:01.016Z,1.90
2019-03-15T18:38:03.283Z,1.10
2019-03-15T18:43:05.389Z,0.97
2019-03-15T18:48:09.397Z,1.00
2019-03-15T18:53:11.571Z,0.93
2019-03-15T18:58:14.179Z,1.17
2019-03-15T19:03:16.295Z,1.00
2019-03-15T19:08:18.346Z,1.27
2019-03-15T19:13:23.491Z,1.87
2019-03-15T19:18:25.663Z,1.10
2019-03-15T19:23:27.720Z,1.20
2019-03-15T19:28:29.814Z,1.53
2019-03-15T19:33:34.439Z,1.40
2019-03-15T19:38:36.790Z,1.00
2019-03-15T19:43:38.910Z,1.20
2019-03-15T19:48:42.251Z,2.33
2019-03-15T19:53:46.382Z,1.60
2019-03-15T19:58:51.348Z,0.80
2019-03-15T20:03:53.731Z,1.43
2019-03-15T20:08:55.919Z,1.30
2019-03-15T20:13:58.052Z,1.73
2019-03-15T20:19:00.098Z,1.40
2019-03-15T20:24:02.137Z,1.43
2019-03-15T20:29:04.402Z,1.27
2019-03-15T20:34:06.540Z,1.30
2019-03-15T20:39:08.676Z,1.07
2019-03-15T20:44:10.906Z,1.10
2019-03-15T20:49:13.143Z,0.70
2019-03-15T20:54:15.279Z,1.23
2019-03-15T20:59:17.340Z,1.37
2019-03-15T21:04:19.450Z,1.47
2019-03-15T21:09:21.706Z,0.97
2019-03-15T21:14:25.318Z,0.87
2019-03-15T21:19:27.318Z,1.00
2019-03-15T21:24:29.433Z,1.27
2019-03-15T21:29:31.695Z,1.10
2019-03-15T21:34:33.802Z,1.20
2019-03-15T21:39:38.258Z,0.97
2019-03-15T21:44:40.412Z,1.07
2019-03-15T21:49:42.494Z,1.00
2019-03-15T21:54:44.554Z,1.00
2019-03-15T21:59:46.792Z,1.30
2019-03-15T22:04:48.929Z,1.00
2019-03-15T22:09:51.002Z,1.20
2019-03-15T22:14:53.042Z,0.77
2019-03-15T22:19:55.139Z,1.37
2019-03-15T22:24:57.275Z,0.63
2019-03-15T22:29:59.342Z,1.17
2019-03-15T22:35:01.411Z,1.00
2019-03-15T22:40:04.078Z,1.17
2019-03-15T22:45:06.260Z,0.90
2019-03-15T22:50:08.628Z,1.60
2019-03-15T22:55:10.975Z,1.10
2019-03-15T23:00:13.906Z,0.67
2019-03-15T23:05:15.948Z,1.07
2019-03-15T23:10:18.017Z,0.80
2019-03-15T23:15:20.065Z,1.07
2019-03-15T23:20:22.113Z,0.77
2019-03-15T23:25:24.225Z,1.10
2019-03-15T23:30:26.389Z,1.03
2019-03-15T23:35:28.469Z,1.03
2019-03-15T23:40:30.562Z,0.97
2019-03-15T23:45:32.636Z,1.13
2019-03-15T23:50:34.672Z,1.17
2019-03-15T23:55:36.720Z,1.50
